Главная страница
METAR-TAF:

METAR-TAF

Аэропорты :

Lutselk'e, Северо-Западные Территории, Канада

широта: 62-25N, долгота: 110-40W, высота над уровнем моря: 179 м

Текущие метеонаблюдения

Эта сводка был подготовлена 12 часа и 23 минут назад, в 00:00 UTC
Ветер 3 Узел от юго-юго-восточный
Температура -6°C
Влажность 68%
Давление 1027 hPa
Видимость: 40.2 км
небольшая облачность на высоте 2200 фута
Отдельные облака на высоте 12000 фута

METAR: CYLK 200000Z 15003KT 25SM FEW022 SCT120 M06/M11 A3032 RMK CF1AC2 -3.3/-6.1/0/3.0 SNW CVR/MUCH LOOSE LAST STFD OBS/NEXT 201500 UTC SLP287

Время: 06:23 (12:23 UTC)

Прогноз

Эта сводка был подготовлена 17 часа и 45 минут назад, в 18:38 UTC
Прогноз действительный с 19-го 19 UTC до 19-го 24 UTC
Ветер 5 Узел от северо-северо-восточный
Видимость: 10 км
Рассеянная облачность на высоте 2000 фута

TAF: CYLK 191838Z 1919/1924 02005KT P6SM BKN020 RMK NXT FCST WILL BE ISSUED AT 201645Z

Метеонаблюдения и прогнозы для более 4000 аэропортов (сводки METAR и TAF).

Имеющиеся станции представлены на карте желтыми и красными точками.

Чтобы увидеть название станции, наведите на нее мышь.

Затем щелкните, чтобы увидеть метеонаблюдения и метеопрогнозы.

Управление картой: чтобы увеличить масштаб, щелкните зеленые кнопки с черным крестиком; чтобы уменьшить масштаб, щелкните зеленую кнопку с тире; для просмотра соседних карт щелкайте зеленые стрелки.


METAR-TAF: